sensor_id;sensor_type;location;lat;lon;timestamp;pressure;altitude;pressure_sealevel;temperature;humidity
58769;BME280;44536;47.474;19.056;2023-02-18T00:00:45;100779.13;;;11.24;75.83
58769;BME280;44536;47.474;19.056;2023-02-18T00:03:48;100762.56;;;11.20;76.08
58769;BME280;44536;47.474;19.056;2023-02-18T00:06:51;100760.94;;;11.31;75.76
58769;BME280;44536;47.474;19.056;2023-02-18T00:09:53;100771.12;;;11.37;75.81
58769;BME280;44536;47.474;19.056;2023-02-18T00:12:55;100753.38;;;11.61;75.09
58769;BME280;44536;47.474;19.056;2023-02-18T00:16:06;100760.53;;;11.72;74.51
58769;BME280;44536;47.474;19.056;2023-02-18T00:19:15;100753.41;;;11.72;74.91
58769;BME280;44536;47.474;19.056;2023-02-18T00:22:17;100753.13;;;11.64;75.30
58769;BME280;44536;47.474;19.056;2023-02-18T00:25:20;100743.31;;;11.77;75.18
58769;BME280;44536;47.474;19.056;2023-02-18T00:28:22;100748.69;;;11.88;74.72
58769;BME280;44536;47.474;19.056;2023-02-18T00:31:30;100741.56;;;11.89;74.97
58769;BME280;44536;47.474;19.056;2023-02-18T00:34:34;100742.53;;;11.88;75.02
58769;BME280;44536;47.474;19.056;2023-02-18T00:37:37;100740.38;;;11.93;75.00
58769;BME280;44536;47.474;19.056;2023-02-18T00:40:40;100737.84;;;11.91;74.93
58769;BME280;44536;47.474;19.056;2023-02-18T00:43:43;100729.47;;;11.96;75.12
58769;BME280;44536;47.474;19.056;2023-02-18T00:46:45;100724.66;;;12.01;75.03
58769;BME280;44536;47.474;19.056;2023-02-18T00:49:49;100726.97;;;11.95;75.64
58769;BME280;44536;47.474;19.056;2023-02-18T00:52:51;100731.56;;;12.04;75.26
58769;BME280;44536;47.474;19.056;2023-02-18T00:55:54;100735.69;;;12.08;75.18
58769;BME280;44536;47.474;19.056;2023-02-18T00:58:57;100729.50;;;12.07;75.24
58769;BME280;44536;47.474;19.056;2023-02-18T01:01:59;100729.66;;;12.17;75.09
58769;BME280;44536;47.474;19.056;2023-02-18T01:05:02;100723.25;;;12.19;75.14
58769;BME280;44536;47.474;19.056;2023-02-18T01:08:05;100721.09;;;12.24;74.71
58769;BME280;44536;47.474;19.056;2023-02-18T01:11:10;100723.53;;;12.27;74.89
58769;BME280;44536;47.474;19.056;2023-02-18T01:14:12;100727.38;;;12.23;74.98
58769;BME280;44536;47.474;19.056;2023-02-18T01:17:15;100721.13;;;12.36;74.42
58769;BME280;44536;47.474;19.056;2023-02-18T01:20:17;100713.28;;;12.45;73.85
58769;BME280;44536;47.474;19.056;2023-02-18T01:23:21;100717.25;;;12.40;74.32
58769;BME280;44536;47.474;19.056;2023-02-18T01:26:23;100707.84;;;12.47;73.84
58769;BME280;44536;47.474;19.056;2023-02-18T01:29:26;100698.75;;;12.49;73.60
58769;BME280;44536;47.474;19.056;2023-02-18T01:32:29;100708.91;;;12.67;72.80
58769;BME280;44536;47.474;19.056;2023-02-18T01:35:32;100697.78;;;12.62;72.98
58769;BME280;44536;47.474;19.056;2023-02-18T01:38:34;100716.88;;;12.78;72.20
58769;BME280;44536;47.474;19.056;2023-02-18T01:41:37;100695.00;;;12.85;71.87
58769;BME280;44536;47.474;19.056;2023-02-18T01:44:39;100694.03;;;12.86;71.70
58769;BME280;44536;47.474;19.056;2023-02-18T01:47:42;100696.44;;;12.89;71.59
58769;BME280;44536;47.474;19.056;2023-02-18T01:51:00;100706.06;;;13.02;70.74
58769;BME280;44536;47.474;19.056;2023-02-18T01:54:32;100701.34;;;13.16;69.91
58769;BME280;44536;47.474;19.056;2023-02-18T01:57:36;100706.31;;;13.21;69.44
58769;BME280;44536;47.474;19.056;2023-02-18T02:00:40;100695.75;;;13.31;69.18
58769;BME280;44536;47.474;19.056;2023-02-18T02:03:42;100697.91;;;13.37;68.76
58769;BME280;44536;47.474;19.056;2023-02-18T02:06:45;100694.87;;;13.41;68.17
58769;BME280;44536;47.474;19.056;2023-02-18T02:09:49;100687.72;;;13.42;68.07
58769;BME280;44536;47.474;19.056;2023-02-18T02:16:17;100670.66;;;13.44;67.77
58769;BME280;44536;47.474;19.056;2023-02-18T02:19:57;100677.72;;;13.55;67.25
58769;BME280;44536;47.474;19.056;2023-02-18T02:36:05;100682.16;;;13.66;66.28
58769;BME280;44536;47.474;19.056;2023-02-18T02:52:06;100664.34;;;13.66;65.85
58769;BME280;44536;47.474;19.056;2023-02-18T02:55:11;100674.16;;;13.66;65.70
58769;BME280;44536;47.474;19.056;2023-02-18T02:58:16;100673.97;;;13.57;65.98
58769;BME280;44536;47.474;19.056;2023-02-18T03:01:24;100682.62;;;13.50;66.26
58769;BME280;44536;47.474;19.056;2023-02-18T03:14:11;100683.19;;;13.53;66.00
58769;BME280;44536;47.474;19.056;2023-02-18T03:17:26;100677.53;;;13.47;66.37
58769;BME280;44536;47.474;19.056;2023-02-18T03:20:38;100684.56;;;13.48;66.34
58769;BME280;44536;47.474;19.056;2023-02-18T03:23:56;100691.72;;;13.47;66.52
58769;BME280;44536;47.474;19.056;2023-02-18T03:27:07;100691.28;;;13.52;66.45
58769;BME280;44536;47.474;19.056;2023-02-18T03:30:18;100703.25;;;13.57;66.10
58769;BME280;44536;47.474;19.056;2023-02-18T03:33:39;100707.38;;;13.62;66.10
58769;BME280;44536;47.474;19.056;2023-02-18T03:36:44;100695.16;;;13.59;65.98
58769;BME280;44536;47.474;19.056;2023-02-18T03:39:49;100693.06;;;13.42;66.69
58769;BME280;44536;47.474;19.056;2023-02-18T03:42:56;100713.91;;;13.37;66.99
58769;BME280;44536;47.474;19.056;2023-02-18T03:45:59;100694.91;;;13.30;67.14
58769;BME280;44536;47.474;19.056;2023-02-18T03:49:02;100691.78;;;13.25;67.63
58769;BME280;44536;47.474;19.056;2023-02-18T03:52:05;100691.78;;;13.14;67.94
58769;BME280;44536;47.474;19.056;2023-02-18T03:55:08;100708.59;;;13.14;68.24
58769;BME280;44536;47.474;19.056;2023-02-18T03:58:11;100710.28;;;13.15;68.18
58769;BME280;44536;47.474;19.056;2023-02-18T04:01:13;100714.53;;;13.18;68.28
58769;BME280;44536;47.474;19.056;2023-02-18T04:04:16;100711.50;;;13.11;68.51
58769;BME280;44536;47.474;19.056;2023-02-18T04:07:18;100712.84;;;13.17;68.29
58769;BME280;44536;47.474;19.056;2023-02-18T04:10:21;100723.38;;;13.07;69.03
58769;BME280;44536;47.474;19.056;2023-02-18T04:13:23;100716.38;;;13.17;68.34
58769;BME280;44536;47.474;19.056;2023-02-18T04:16:26;100729.56;;;13.19;68.48
58769;BME280;44536;47.474;19.056;2023-02-18T04:19:28;100710.19;;;13.17;68.52
58769;BME280;44536;47.474;19.056;2023-02-18T04:22:31;100717.22;;;13.18;68.78
58769;BME280;44536;47.474;19.056;2023-02-18T04:25:34;100710.53;;;13.12;69.05
58769;BME280;44536;47.474;19.056;2023-02-18T04:28:37;100716.09;;;13.09;69.43
58769;BME280;44536;47.474;19.056;2023-02-18T04:31:39;100716.94;;;13.10;69.42
58769;BME280;44536;47.474;19.056;2023-02-18T04:34:42;100723.00;;;13.01;69.98
58769;BME280;44536;47.474;19.056;2023-02-18T04:37:44;100716.16;;;12.98;70.18
58769;BME280;44536;47.474;19.056;2023-02-18T04:40:47;100707.44;;;12.85;70.72
58769;BME280;44536;47.474;19.056;2023-02-18T04:43:49;100710.47;;;12.80;71.22
58769;BME280;44536;47.474;19.056;2023-02-18T04:46:52;100716.41;;;12.84;71.05
58769;BME280;44536;47.474;19.056;2023-02-18T04:49:54;100725.47;;;12.81;71.28
58769;BME280;44536;47.474;19.056;2023-02-18T04:52:56;100734.91;;;12.74;71.69
58769;BME280;44536;47.474;19.056;2023-02-18T04:55:59;100742.03;;;12.85;71.24
58769;BME280;44536;47.474;19.056;2023-02-18T04:59:01;100741.69;;;12.89;71.34
58769;BME280;44536;47.474;19.056;2023-02-18T05:02:04;100732.50;;;12.82;72.39
58769;BME280;44536;47.474;19.056;2023-02-18T05:05:06;100767.09;;;12.82;73.07
58769;BME280;44536;47.474;19.056;2023-02-18T05:08:08;100766.09;;;12.72;73.81
58769;BME280;44536;47.474;19.056;2023-02-18T05:11:11;100764.41;;;12.71;74.03
58769;BME280;44536;47.474;19.056;2023-02-18T05:14:14;100767.31;;;12.68;74.60
58769;BME280;44536;47.474;19.056;2023-02-18T05:17:17;100775.78;;;12.62;75.35
58769;BME280;44536;47.474;19.056;2023-02-18T05:20:19;100763.06;;;12.54;75.83
58769;BME280;44536;47.474;19.056;2023-02-18T05:23:21;100776.59;;;12.51;76.29
58769;BME280;44536;47.474;19.056;2023-02-18T05:26:24;100778.31;;;12.41;76.91
58769;BME280;44536;47.474;19.056;2023-02-18T05:29:26;100783.13;;;12.36;77.30
58769;BME280;44536;47.474;19.056;2023-02-18T05:32:28;100777.94;;;12.35;77.35
58769;BME280;44536;47.474;19.056;2023-02-18T05:35:31;100777.19;;;12.33;77.08
58769;BME280;44536;47.474;19.056;2023-02-18T05:38:33;100789.75;;;12.31;76.74
58769;BME280;44536;47.474;19.056;2023-02-18T05:41:36;100778.28;;;12.30;76.46
58769;BME280;44536;47.474;19.056;2023-02-18T05:44:38;100788.22;;;12.39;75.93
58769;BME280;44536;47.474;19.056;2023-02-18T05:47:41;100794.00;;;12.33;76.26
58769;BME280;44536;47.474;19.056;2023-02-18T05:50:43;100799.09;;;12.36;76.04
58769;BME280;44536;47.474;19.056;2023-02-18T05:53:45;100795.69;;;12.34;76.00
58769;BME280;44536;47.474;19.056;2023-02-18T05:56:48;100820.72;;;12.32;76.45
58769;BME280;44536;47.474;19.056;2023-02-18T05:59:50;100810.06;;;12.32;76.33
58769;BME280;44536;47.474;19.056;2023-02-18T06:02:52;100827.72;;;12.33;75.17
58769;BME280;44536;47.474;19.056;2023-02-18T06:05:55;100821.78;;;12.29;76.01
58769;BME280;44536;47.474;19.056;2023-02-18T06:08:57;100828.62;;;12.20;75.32
58769;BME280;44536;47.474;19.056;2023-02-18T06:12:00;100828.53;;;12.22;75.19
58769;BME280;44536;47.474;19.056;2023-02-18T06:15:03;100832.03;;;12.22;75.06
58769;BME280;44536;47.474;19.056;2023-02-18T06:18:06;100841.19;;;12.18;75.13
58769;BME280;44536;47.474;19.056;2023-02-18T06:21:08;100848.31;;;12.18;74.86
58769;BME280;44536;47.474;19.056;2023-02-18T06:24:11;100849.63;;;12.12;75.24
58769;BME280;44536;47.474;19.056;2023-02-18T06:27:13;100854.56;;;12.06;75.65
58769;BME280;44536;47.474;19.056;2023-02-18T06:30:16;100861.44;;;12.08;75.18
58769;BME280;44536;47.474;19.056;2023-02-18T06:33:18;100866.50;;;12.00;75.63
58769;BME280;44536;47.474;19.056;2023-02-18T06:36:21;100870.00;;;12.01;78.04
58769;BME280;44536;47.474;19.056;2023-02-18T06:39:23;100869.78;;;11.67;79.60
58769;BME280;44536;47.474;19.056;2023-02-18T06:42:25;100864.84;;;11.50;81.64
58769;BME280;44536;47.474;19.056;2023-02-18T06:45:28;100852.62;;;11.47;82.35
58769;BME280;44536;47.474;19.056;2023-02-18T06:48:30;100862.62;;;11.44;82.27
58769;BME280;44536;47.474;19.056;2023-02-18T06:51:33;100865.78;;;11.49;82.09
58769;BME280;44536;47.474;19.056;2023-02-18T06:54:35;100859.50;;;11.63;82.21
58769;BME280;44536;47.474;19.056;2023-02-18T06:57:37;100857.97;;;11.71;82.41
58769;BME280;44536;47.474;19.056;2023-02-18T07:00:40;100866.28;;;11.79;82.46
58769;BME280;44536;47.474;19.056;2023-02-18T07:03:43;100864.25;;;11.83;82.92
58769;BME280;44536;47.474;19.056;2023-02-18T07:06:45;100857.00;;;11.85;83.08
58769;BME280;44536;47.474;19.056;2023-02-18T07:09:48;100879.00;;;11.87;83.14
58769;BME280;44536;47.474;19.056;2023-02-18T07:12:50;100871.88;;;11.87;83.53
58769;BME280;44536;47.474;19.056;2023-02-18T07:15:52;100871.56;;;11.92;83.36
58769;BME280;44536;47.474;19.056;2023-02-18T07:18:55;100864.53;;;11.91;83.32
58769;BME280;44536;47.474;19.056;2023-02-18T07:21:57;100878.81;;;12.01;82.64
58769;BME280;44536;47.474;19.056;2023-02-18T07:25:00;100878.03;;;12.12;81.88
58769;BME280;44536;47.474;19.056;2023-02-18T07:28:02;100876.72;;;12.17;81.54
58769;BME280;44536;47.474;19.056;2023-02-18T07:31:05;100880.69;;;12.36;80.71
58769;BME280;44536;47.474;19.056;2023-02-18T07:34:08;100892.38;;;12.33;80.54
58769;BME280;44536;47.474;19.056;2023-02-18T07:37:11;100883.00;;;12.40;79.76
58769;BME280;44536;47.474;19.056;2023-02-18T07:40:16;100878.91;;;12.47;78.93
58769;BME280;44536;47.474;19.056;2023-02-18T07:43:19;100866.47;;;12.59;78.61
58769;BME280;44536;47.474;19.056;2023-02-18T07:46:22;100874.25;;;12.73;77.84
58769;BME280;44536;47.474;19.056;2023-02-18T07:49:24;100874.25;;;12.73;77.16
58769;BME280;44536;47.474;19.056;2023-02-18T07:52:27;100867.75;;;13.00;76.18
58769;BME280;44536;47.474;19.056;2023-02-18T07:55:30;100871.59;;;13.07;75.00
58769;BME280;44536;47.474;19.056;2023-02-18T07:58:51;100864.09;;;13.12;74.41
58769;BME280;44536;47.474;19.056;2023-02-18T08:01:53;100867.75;;;13.11;73.73
58769;BME280;44536;47.474;19.056;2023-02-18T08:04:56;100864.94;;;13.12;74.07
58769;BME280;44536;47.474;19.056;2023-02-18T08:07:58;100863.87;;;13.15;73.85
58769;BME280;44536;47.474;19.056;2023-02-18T08:11:01;100853.50;;;13.34;73.38
58769;BME280;44536;47.474;19.056;2023-02-18T08:14:17;100863.53;;;13.31;72.50
58769;BME280;44536;47.474;19.056;2023-02-18T08:17:20;100864.88;;;13.25;73.63
58769;BME280;44536;47.474;19.056;2023-02-18T08:20:22;100858.16;;;13.53;71.31
58769;BME280;44536;47.474;19.056;2023-02-18T08:23:25;100868.81;;;13.64;70.63
58769;BME280;44536;47.474;19.056;2023-02-18T08:26:28;100875.09;;;13.85;69.34
58769;BME280;44536;47.474;19.056;2023-02-18T08:29:30;100873.47;;;13.94;69.05
58769;BME280;44536;47.474;19.056;2023-02-18T08:32:33;100857.75;;;13.91;68.69
58769;BME280;44536;47.474;19.056;2023-02-18T08:35:35;100892.78;;;13.86;68.78
58769;BME280;44536;47.474;19.056;2023-02-18T08:38:37;100879.56;;;13.85;68.64
58769;BME280;44536;47.474;19.056;2023-02-18T08:41:40;100870.69;;;13.96;68.37
58769;BME280;44536;47.474;19.056;2023-02-18T08:44:42;100870.47;;;13.87;68.23
58769;BME280;44536;47.474;19.056;2023-02-18T08:47:45;100871.19;;;13.89;68.44
58769;BME280;44536;47.474;19.056;2023-02-18T08:51:12;100877.25;;;13.91;68.83
58769;BME280;44536;47.474;19.056;2023-02-18T08:54:16;100873.12;;;13.87;68.91
58769;BME280;44536;47.474;19.056;2023-02-18T08:57:18;100861.78;;;14.06;67.96
58769;BME280;44536;47.474;19.056;2023-02-18T09:00:21;100864.63;;;14.25;67.52
58769;BME280;44536;47.474;19.056;2023-02-18T09:03:24;100860.47;;;14.33;67.29
58769;BME280;44536;47.474;19.056;2023-02-18T09:06:28;100868.97;;;14.58;66.37
58769;BME280;44536;47.474;19.056;2023-02-18T09:09:30;100883.97;;;14.50;66.46
58769;BME280;44536;47.474;19.056;2023-02-18T09:12:33;100874.78;;;14.32;66.58
58769;BME280;44536;47.474;19.056;2023-02-18T09:15:35;100870.13;;;14.13;67.50
58769;BME280;44536;47.474;19.056;2023-02-18T09:18:38;100865.50;;;13.83;68.59
58769;BME280;44536;47.474;19.056;2023-02-18T09:21:40;100860.06;;;13.73;69.39
58769;BME280;44536;47.474;19.056;2023-02-18T09:24:43;100867.72;;;13.67;69.99
58769;BME280;44536;47.474;19.056;2023-02-18T09:27:46;100863.50;;;13.64;70.42
58769;BME280;44536;47.474;19.056;2023-02-18T09:30:48;100855.59;;;13.74;69.95
58769;BME280;44536;47.474;19.056;2023-02-18T09:33:58;100843.44;;;13.92;69.35
58769;BME280;44536;47.474;19.056;2023-02-18T09:37:02;100848.66;;;14.14;69.29
58769;BME280;44536;47.474;19.056;2023-02-18T09:40:05;100847.47;;;14.60;67.30
58769;BME280;44536;47.474;19.056;2023-02-18T09:43:28;100838.50;;;14.40;67.39
58769;BME280;44536;47.474;19.056;2023-02-18T09:46:35;100843.84;;;14.61;66.48
58769;BME280;44536;47.474;19.056;2023-02-18T09:49:43;100845.91;;;14.78;66.46
58769;BME280;44536;47.474;19.056;2023-02-18T09:52:48;100848.84;;;14.96;65.26
58769;BME280;44536;47.474;19.056;2023-02-18T09:55:54;100846.72;;;15.30;64.30
58769;BME280;44536;47.474;19.056;2023-02-18T09:59:02;100846.59;;;15.32;63.98
58769;BME280;44536;47.474;19.056;2023-02-18T10:02:09;100847.69;;;15.60;62.54
58769;BME280;44536;47.474;19.056;2023-02-18T10:05:18;100853.03;;;15.60;62.44
58769;BME280;44536;47.474;19.056;2023-02-18T10:08:44;100849.25;;;15.72;61.70
58769;BME280;44536;47.474;19.056;2023-02-18T10:12:15;100847.19;;;15.95;61.42
58769;BME280;44536;47.474;19.056;2023-02-18T10:15:23;100846.97;;;15.27;62.20
58769;BME280;44536;47.474;19.056;2023-02-18T10:18:35;100851.03;;;15.21;62.59
58769;BME280;44536;47.474;19.056;2023-02-18T10:21:40;100849.88;;;14.84;63.31
58769;BME280;44536;47.474;19.056;2023-02-18T10:24:57;100849.41;;;14.48;65.10
58769;BME280;44536;47.474;19.056;2023-02-18T10:28:01;100839.47;;;14.60;64.73
58769;BME280;44536;47.474;19.056;2023-02-18T10:31:07;100844.22;;;14.56;65.28
58769;BME280;44536;47.474;19.056;2023-02-18T10:41:08;100843.87;;;14.92;63.64
58769;BME280;44536;47.474;19.056;2023-02-18T10:47:42;100821.59;;;15.42;62.61
58769;BME280;44536;47.474;19.056;2023-02-18T10:50:47;100816.63;;;15.78;61.13
58769;BME280;44536;47.474;19.056;2023-02-18T10:53:51;100812.69;;;16.01;60.70
58769;BME280;44536;47.474;19.056;2023-02-18T10:56:58;100801.09;;;16.49;59.79
58769;BME280;44536;47.474;19.056;2023-02-18T11:00:15;100807.88;;;16.43;59.80
58769;BME280;44536;47.474;19.056;2023-02-18T11:03:41;100805.47;;;16.31;59.65
58769;BME280;44536;47.474;19.056;2023-02-18T11:06:45;100801.66;;;16.43;59.03
58769;BME280;44536;47.474;19.056;2023-02-18T11:09:53;100794.62;;;16.42;59.48
58769;BME280;44536;47.474;19.056;2023-02-18T11:13:00;100789.69;;;16.37;60.19
58769;BME280;44536;47.474;19.056;2023-02-18T11:16:05;100781.88;;;15.97;61.94
58769;BME280;44536;47.474;19.056;2023-02-18T11:19:32;100785.94;;;15.82;61.96
58769;BME280;44536;47.474;19.056;2023-02-18T11:22:35;100795.12;;;15.39;63.56
58769;BME280;44536;47.474;19.056;2023-02-18T11:25:53;100775.97;;;15.24;64.39
58769;BME280;44536;47.474;19.056;2023-02-18T11:29:24;100769.53;;;15.37;63.94
58769;BME280;44536;47.474;19.056;2023-02-18T11:32:29;100763.78;;;15.41;64.67
58769;BME280;44536;47.474;19.056;2023-02-18T11:35:33;100758.63;;;15.69;63.93
58769;BME280;44536;47.474;19.056;2023-02-18T11:38:40;100751.84;;;16.22;61.75
58769;BME280;44536;47.474;19.056;2023-02-18T11:41:53;100754.47;;;16.51;61.46
58769;BME280;44536;47.474;19.056;2023-02-18T11:44:58;100751.69;;;16.14;61.03
58769;BME280;44536;47.474;19.056;2023-02-18T11:48:16;100748.47;;;15.43;63.74
58769;BME280;44536;47.474;19.056;2023-02-18T11:51:24;100738.78;;;15.71;62.96
58769;BME280;44536;47.474;19.056;2023-02-18T11:54:28;100743.00;;;15.74;63.17
58769;BME280;44536;47.474;19.056;2023-02-18T11:57:33;100739.91;;;15.88;62.84
58769;BME280;44536;47.474;19.056;2023-02-18T12:00:44;100727.81;;;16.03;61.75
58769;BME280;44536;47.474;19.056;2023-02-18T12:04:11;100718.22;;;16.01;61.46
58769;BME280;44536;47.474;19.056;2023-02-18T12:07:26;100712.03;;;16.10;60.87
58769;BME280;44536;47.474;19.056;2023-02-18T12:10:42;100707.34;;;16.21;60.37
58769;BME280;44536;47.474;19.056;2023-02-18T12:13:52;100718.94;;;16.59;59.54
58769;BME280;44536;47.474;19.056;2023-02-18T12:17:24;100698.44;;;17.23;56.99
58769;BME280;44536;47.474;19.056;2023-02-18T12:20:58;100689.06;;;16.54;58.66
58769;BME280;44536;47.474;19.056;2023-02-18T12:27:50;100672.22;;;15.87;60.64
58769;BME280;44536;47.474;19.056;2023-02-18T12:31:11;100667.91;;;16.14;59.56
58769;BME280;44536;47.474;19.056;2023-02-18T12:43:58;100655.59;;;15.94;59.16
58769;BME280;44536;47.474;19.056;2023-02-18T12:47:32;100654.81;;;16.20;57.42
58769;BME280;44536;47.474;19.056;2023-02-18T13:00:36;100642.78;;;16.71;54.85
58769;BME280;44536;47.474;19.056;2023-02-18T13:07:28;100621.72;;;16.21;57.15
58769;BME280;44536;47.474;19.056;2023-02-18T13:17:20;100614.00;;;17.01;53.71
58769;BME280;44536;47.474;19.056;2023-02-18T13:20:35;100603.19;;;16.93;54.52
58769;BME280;44536;47.474;19.056;2023-02-18T13:23:53;100600.69;;;18.56;50.47
58769;BME280;44536;47.474;19.056;2023-02-18T13:30:26;100595.53;;;20.25;45.97
58769;BME280;44536;47.474;19.056;2023-02-18T13:40:30;100585.87;;;19.02;48.61
58769;BME280;44536;47.474;19.056;2023-02-18T13:43:34;100586.78;;;18.27;50.13
58769;BME280;44536;47.474;19.056;2023-02-18T13:46:51;100574.69;;;17.89;50.77
58769;BME280;44536;47.474;19.056;2023-02-18T13:49:54;100584.41;;;17.64;51.57
58769;BME280;44536;47.474;19.056;2023-02-18T13:56:29;100557.47;;;17.30;52.51
58769;BME280;44536;47.474;19.056;2023-02-18T13:59:37;100540.59;;;17.11;52.56
58769;BME280;44536;47.474;19.056;2023-02-18T14:02:56;100543.97;;;16.96;53.23
58769;BME280;44536;47.474;19.056;2023-02-18T14:06:00;100545.47;;;16.63;53.63
58769;BME280;44536;47.474;19.056;2023-02-18T14:15:57;100519.75;;;16.25;56.03
58769;BME280;44536;47.474;19.056;2023-02-18T14:19:02;100511.31;;;16.47;55.79
58769;BME280;44536;47.474;19.056;2023-02-18T14:25:38;100494.47;;;17.26;53.89
58769;BME280;44536;47.474;19.056;2023-02-18T14:31:53;100498.28;;;16.97;54.87
58769;BME280;44536;47.474;19.056;2023-02-18T14:35:16;100484.03;;;16.97;55.31
58769;BME280;44536;47.474;19.056;2023-02-18T14:42:00;100480.66;;;17.12;54.60
58769;BME280;44536;47.474;19.056;2023-02-18T14:52:01;100473.53;;;17.03;54.73
58769;BME280;44536;47.474;19.056;2023-02-18T14:55:06;100479.00;;;16.94;55.06
58769;BME280;44536;47.474;19.056;2023-02-18T14:58:33;100473.94;;;16.91;55.62
58769;BME280;44536;47.474;19.056;2023-02-18T15:01:37;100466.12;;;16.62;55.08
58769;BME280;44536;47.474;19.056;2023-02-18T15:04:41;100474.25;;;15.70;55.82
58769;BME280;44536;47.474;19.056;2023-02-18T15:08:00;100466.94;;;15.15;56.90
58769;BME280;44536;47.474;19.056;2023-02-18T15:11:06;100469.94;;;14.74;57.29
58769;BME280;44536;47.474;19.056;2023-02-18T15:14:13;100471.16;;;14.41;57.16
58769;BME280;44536;47.474;19.056;2023-02-18T15:17:22;100462.16;;;14.22;57.58
58769;BME280;44536;47.474;19.056;2023-02-18T15:20:27;100462.38;;;13.90;58.27
58769;BME280;44536;47.474;19.056;2023-02-18T15:23:34;100457.87;;;13.91;58.13
58769;BME280;44536;47.474;19.056;2023-02-18T15:26:41;100458.38;;;13.75;58.29
58769;BME280;44536;47.474;19.056;2023-02-18T15:29:49;100474.81;;;13.50;59.21
58769;BME280;44536;47.474;19.056;2023-02-18T15:32:54;100470.38;;;13.30;59.50
58769;BME280;44536;47.474;19.056;2023-02-18T15:36:05;100464.75;;;13.12;60.44
58769;BME280;44536;47.474;19.056;2023-02-18T15:39:08;100468.28;;;12.91;61.44
58769;BME280;44536;47.474;19.056;2023-02-18T15:42:32;100470.81;;;12.61;62.52
58769;BME280;44536;47.474;19.056;2023-02-18T15:45:44;100468.75;;;12.33;63.52
58769;BME280;44536;47.474;19.056;2023-02-18T15:48:48;100463.94;;;12.26;63.59
58769;BME280;44536;47.474;19.056;2023-02-18T15:51:56;100454.78;;;12.08;64.31
58769;BME280;44536;47.474;19.056;2023-02-18T15:55:02;100454.78;;;11.97;64.48
58769;BME280;44536;47.474;19.056;2023-02-18T15:58:28;100459.06;;;11.77;65.43
58769;BME280;44536;47.474;19.056;2023-02-18T16:01:31;100460.47;;;11.59;66.06
58769;BME280;44536;47.474;19.056;2023-02-18T16:04:40;100466.03;;;11.45;66.93
58769;BME280;44536;47.474;19.056;2023-02-18T16:07:58;100453.34;;;11.26;67.26
58769;BME280;44536;47.474;19.056;2023-02-18T16:11:05;100450.06;;;11.11;68.17
58769;BME280;44536;47.474;19.056;2023-02-18T16:14:30;100460.53;;;11.02;68.37
58769;BME280;44536;47.474;19.056;2023-02-18T16:17:34;100455.91;;;10.92;68.43
58769;BME280;44536;47.474;19.056;2023-02-18T16:20:37;100462.62;;;10.74;69.28
58769;BME280;44536;47.474;19.056;2023-02-18T16:23:51;100461.53;;;10.66;69.04
58769;BME280;44536;47.474;19.056;2023-02-18T16:27:00;100462.62;;;10.74;68.53
58769;BME280;44536;47.474;19.056;2023-02-18T16:30:16;100457.19;;;10.65;69.75
58769;BME280;44536;47.474;19.056;2023-02-18T16:33:19;100455.38;;;10.65;69.50
58769;BME280;44536;47.474;19.056;2023-02-18T16:36:22;100453.41;;;10.56;69.92
58769;BME280;44536;47.474;19.056;2023-02-18T16:39:27;100441.91;;;10.44;70.07
58769;BME280;44536;47.474;19.056;2023-02-18T16:42:30;100432.25;;;10.43;70.64
58769;BME280;44536;47.474;19.056;2023-02-18T16:45:38;100440.56;;;10.39;70.66
58769;BME280;44536;47.474;19.056;2023-02-18T16:48:44;100433.63;;;10.25;71.27
58769;BME280;44536;47.474;19.056;2023-02-18T16:51:47;100429.69;;;10.31;70.94
58769;BME280;44536;47.474;19.056;2023-02-18T16:54:50;100437.34;;;10.22;71.56
58769;BME280;44536;47.474;19.056;2023-02-18T16:57:54;100431.66;;;10.03;72.55
58769;BME280;44536;47.474;19.056;2023-02-18T17:00:57;100434.09;;;10.06;72.31
58769;BME280;44536;47.474;19.056;2023-02-18T17:04:01;100440.28;;;9.94;72.58
58769;BME280;44536;47.474;19.056;2023-02-18T17:07:08;100447.22;;;9.84;73.20
58769;BME280;44536;47.474;19.056;2023-02-18T17:10:12;100443.81;;;9.82;73.53
58769;BME280;44536;47.474;19.056;2023-02-18T17:13:20;100439.63;;;9.67;74.08
58769;BME280;44536;47.474;19.056;2023-02-18T17:16:22;100438.56;;;9.56;75.20
58769;BME280;44536;47.474;19.056;2023-02-18T17:19:25;100444.63;;;9.46;75.25
58769;BME280;44536;47.474;19.056;2023-02-18T17:22:27;100444.72;;;9.44;75.38
58769;BME280;44536;47.474;19.056;2023-02-18T17:25:34;100438.16;;;9.37;75.52
58769;BME280;44536;47.474;19.056;2023-02-18T17:28:37;100450.44;;;9.38;76.00
58769;BME280;44536;47.474;19.056;2023-02-18T17:31:42;100452.66;;;9.44;75.80
58769;BME280;44536;47.474;19.056;2023-02-18T17:34:46;100447.56;;;9.41;75.94
58769;BME280;44536;47.474;19.056;2023-02-18T17:37:49;100442.00;;;9.33;76.13
58769;BME280;44536;47.474;19.056;2023-02-18T17:40:51;100445.81;;;9.16;76.99
58769;BME280;44536;47.474;19.056;2023-02-18T17:43:54;100441.69;;;9.12;77.07
58769;BME280;44536;47.474;19.056;2023-02-18T17:46:56;100439.12;;;9.11;77.67
58769;BME280;44536;47.474;19.056;2023-02-18T17:49:58;100442.62;;;8.99;77.73
58769;BME280;44536;47.474;19.056;2023-02-18T17:53:00;100431.72;;;9.03;77.55
58769;BME280;44536;47.474;19.056;2023-02-18T17:56:03;100425.06;;;8.98;78.06
58769;BME280;44536;47.474;19.056;2023-02-18T17:59:05;100420.50;;;9.00;78.09
58769;BME280;44536;47.474;19.056;2023-02-18T18:02:23;100421.69;;;9.08;77.45